Newport, Pennsylvania
Current Conditions -  °F | °C
As of 7:56 AM on Monday 22 Dec 2014 (Local Time) from KCXY Reporting Station
Haze Haze  
Wind Chill: 21°   Ceiling: Unl
Heat Index: 21°   Visibility: 3mi
Dew Point: 18°   Wind: 0mph
Humidity: 88%   Direction: NA
Pressure: 30.31"   Gusts: NA
Location:  40.48°N, 77.13°W
Report Text: KCXY 221256Z 00000KT 3SM BR CLR M06/M08 A3031 RMK AO2 SLP270 I1000 T10611078
Loading
Personal Weather Stations






























Interactive Weather Map New forecast layout! Learn more

10-Day Weather Forecast

Advertisements
Track Severe Weather on mobile